Time;durP1;ratioP1;P1;durP2;ratioP2;P2;SDS_P1;SDS_P2;PMS_P1;PMS_P2;Temp;Humidity;BMP_temperature;BMP_pressure;BME280_temperature;BME280_humidity;BME280_pressure;Samples;Min_cycle;Max_cycle;Signal;HPM_P1;HPM_P2
2022/11/13 00:00:05;;;;;;;18.30;10.10;;;8.60;97.20;;;;;;4966796;28;20054;-68
2022/11/13 00:02:49;;;;;;;14.73;9.32;;;8.60;97.20;;;;;;4962893;28;20082;-67
2022/11/13 00:05:34;;;;;;;18.13;9.20;;;8.60;97.30;;;;;;4963183;28;20185;-65
2022/11/13 00:08:18;;;;;;;17.35;9.70;;;8.60;97.30;;;;;;4962591;28;20892;-69
2022/11/13 00:11:05;;;;;;;15.75;8.82;;;8.60;97.40;;;;;;4963133;28;20871;-65
2022/11/13 00:13:49;;;;;;;15.57;8.60;;;8.60;97.50;;;;;;4963199;28;20875;-67
2022/11/13 00:16:33;;;;;;;16.77;9.68;;;8.60;97.60;;;;;;4955993;28;20116;-68
2022/11/13 00:19:18;;;;;;;23.42;9.98;;;8.60;97.60;;;;;;4965041;28;20045;-65
2022/11/13 00:22:02;;;;;;;15.15;8.73;;;8.60;97.70;;;;;;4962232;28;20133;-67
2022/11/13 00:24:46;;;;;;;16.75;8.40;;;8.60;97.70;;;;;;4959890;28;20100;-68
2022/11/13 00:27:31;;;;;;;13.32;7.82;;;8.60;97.50;;;;;;4961339;28;20133;-66
2022/11/13 00:30:15;;;;;;;13.15;8.35;;;8.60;97.40;;;;;;4961384;28;20113;-67
2022/11/13 00:33:00;;;;;;;14.20;8.48;;;8.50;97.30;;;;;;4962188;28;20046;-67
2022/11/13 00:35:44;;;;;;;15.27;9.18;;;8.50;97.20;;;;;;4962811;28;20449;-67
2022/11/13 00:38:28;;;;;;;14.55;8.63;;;8.50;97.20;;;;;;4963925;28;20045;-67
2022/11/13 00:41:12;;;;;;;13.45;8.60;;;8.50;97.30;;;;;;4963340;28;20129;-67
2022/11/13 00:43:56;;;;;;;14.73;8.25;;;8.50;97.20;;;;;;4962419;28;20050;-67
2022/11/13 00:46:41;;;;;;;15.30;9.13;;;8.50;97.20;;;;;;4962553;28;20058;-67
2022/11/13 00:49:25;;;;;;;14.82;8.25;;;8.50;97.10;;;;;;4962212;28;20505;-67
2022/11/13 00:52:09;;;;;;;12.80;7.95;;;8.50;97.00;;;;;;4969209;28;20053;-67
2022/11/13 00:54:53;;;;;;;15.65;9.05;;;8.40;97.00;;;;;;4966918;28;20148;-67
2022/11/13 00:57:37;;;;;;;14.48;8.63;;;8.40;97.00;;;;;;4962568;28;20033;-67
2022/11/13 01:00:21;;;;;;;15.43;8.70;;;8.30;96.90;;;;;;4962949;28;20117;-67
2022/11/13 01:03:05;;;;;;;13.10;8.88;;;8.30;96.90;;;;;;4959743;28;20885;-67
2022/11/13 01:05:50;;;;;;;17.02;9.13;;;8.20;96.80;;;;;;4961812;28;20046;-67
2022/11/13 01:08:34;;;;;;;13.63;8.73;;;8.20;96.90;;;;;;4961711;28;20113;-67
2022/11/13 01:11:21;;;;;;;14.45;8.80;;;8.20;97.00;;;;;;4959546;28;20097;-67
2022/11/13 01:14:06;;;;;;;15.23;9.27;;;8.10;97.00;;;;;;4961737;28;20050;-67
2022/11/13 01:16:50;;;;;;;14.88;8.68;;;8.10;97.00;;;;;;4961599;28;20482;-67
2022/11/13 01:19:35;;;;;;;16.83;8.90;;;8.10;97.00;;;;;;4961456;28;20110;-67
2022/11/13 01:22:19;;;;;;;16.40;9.55;;;8.10;97.10;;;;;;4962437;28;20424;-67
2022/11/13 01:25:04;;;;;;;13.07;8.32;;;8.10;97.20;;;;;;4962359;28;20054;-67
2022/11/13 01:27:48;;;;;;;16.42;9.60;;;8.10;97.20;;;;;;4960689;28;20089;-67
2022/11/13 01:30:32;;;;;;;13.52;8.38;;;8.00;97.00;;;;;;4961709;28;20462;-67
2022/11/13 01:33:16;;;;;;;14.85;8.43;;;8.00;97.00;;;;;;4962384;28;20097;-67
2022/11/13 01:36:12;;;;;;;16.05;9.15;;;8.00;97.00;;;;;;4962203;28;20492;-67
2022/11/13 01:38:56;;;;;;;17.38;8.40;;;8.00;97.10;;;;;;4962164;28;20094;-67
2022/11/13 01:41:41;;;;;;;14.20;7.65;;;8.00;97.20;;;;;;4962133;28;20097;-67
2022/11/13 01:44:45;;;;;;;13.18;7.88;;;8.00;97.30;;;;;;4966147;28;20041;-67
2022/11/13 01:47:30;;;;;;;17.77;8.77;;;8.00;97.40;;;;;;4962464;28;20725;-67
2022/11/13 01:50:15;;;;;;;13.70;8.88;;;8.00;97.40;;;;;;4961904;28;20130;-67
2022/11/13 01:52:59;;;;;;;12.98;8.20;;;8.00;97.30;;;;;;4963898;28;20652;-67
2022/11/13 01:55:44;;;;;;;12.85;8.02;;;8.10;97.50;;;;;;4960921;28;20100;-67
2022/11/13 01:58:29;;;;;;;15.18;8.57;;;8.10;97.50;;;;;;4961279;28;20045;-67
2022/11/13 02:01:13;;;;;;;13.93;7.57;;;8.20;97.40;;;;;;4962894;28;20109;-67
2022/11/13 02:03:57;;;;;;;11.80;7.55;;;8.20;97.50;;;;;;4961399;28;20132;-67
2022/11/13 02:06:47;;;;;;;13.10;7.85;;;8.30;97.60;;;;;;4959465;28;20053;-67
2022/11/13 02:09:43;;;;;;;12.77;7.32;;;8.40;97.70;;;;;;4966503;28;20124;-67
2022/11/13 02:12:31;;;;;;;11.68;8.05;;;8.40;97.80;;;;;;4960434;28;20053;-67
2022/11/13 02:15:23;;;;;;;12.18;7.45;;;8.50;97.90;;;;;;4964025;28;20057;-67
2022/11/13 02:18:09;;;;;;;11.93;7.00;;;8.60;98.00;;;;;;4959963;28;20165;-67
2022/11/13 02:20:59;;;;;;;12.93;7.43;;;8.60;98.00;;;;;;4961832;28;20090;-67
2022/11/13 02:24:20;;;;;;;11.38;7.72;;;8.70;98.10;;;;;;4959441;28;20050;-67
2022/11/13 02:27:09;;;;;;;11.45;6.95;;;8.80;98.00;;;;;;4961134;28;20093;-67
2022/11/13 02:29:53;;;;;;;12.18;7.00;;;8.80;97.90;;;;;;4962001;28;20076;-67
2022/11/13 02:32:49;;;;;;;13.48;6.90;;;8.90;97.90;;;;;;4961858;28;20629;-67
2022/11/13 02:35:37;;;;;;;11.48;6.68;;;8.90;97.90;;;;;;4962410;28;20494;-67
2022/11/13 02:38:22;;;;;;;12.15;6.63;;;8.90;98.00;;;;;;4960924;28;20089;-67
2022/11/13 02:41:06;;;;;;;12.18;6.57;;;9.00;98.00;;;;;;4963105;28;20135;-67
2022/11/13 02:43:51;;;;;;;11.50;7.00;;;9.10;98.20;;;;;;4959606;28;20042;-67
2022/11/13 02:46:35;;;;;;;10.35;7.15;;;9.10;98.20;;;;;;4962235;28;20093;-67
2022/11/13 02:49:19;;;;;;;12.80;7.28;;;9.20;98.20;;;;;;4960706;28;20185;-67
2022/11/13 02:52:04;;;;;;;10.70;6.07;;;9.30;98.10;;;;;;4962023;28;20180;-67
2022/11/13 02:54:48;;;;;;;10.10;5.70;;;9.30;98.00;;;;;;4962143;28;20050;-71
2022/11/13 02:57:33;;;;;;;10.90;6.65;;;9.30;98.10;;;;;;4962328;28;20711;-71
2022/11/13 03:00:18;;;;;;;10.70;5.97;;;9.40;98.10;;;;;;4960828;28;20130;-71
2022/11/13 03:03:02;;;;;;;13.10;6.18;;;9.50;98.10;;;;;;4960717;28;20057;-71
2022/11/13 03:05:50;;;;;;;9.07;5.93;;;9.50;98.20;;;;;;4959134;28;20061;-71
2022/11/13 03:08:34;;;;;;;8.65;5.70;;;9.50;98.20;;;;;;4960150;28;20191;-71
2022/11/13 03:11:18;;;;;;;8.45;5.90;;;9.60;98.10;;;;;;4962226;28;20105;-71
2022/11/13 03:14:03;;;;;;;10.25;5.82;;;9.70;98.10;;;;;;4960775;28;20144;-71
2022/11/13 03:16:47;;;;;;;9.00;6.15;;;9.70;98.20;;;;;;4960781;28;20102;-71
2022/11/13 03:19:31;;;;;;;8.50;5.55;;;9.80;98.20;;;;;;4961233;28;20090;-71
2022/11/13 03:22:15;;;;;;;9.65;5.93;;;9.90;98.20;;;;;;4958848;28;20113;-71
2022/11/13 03:24:59;;;;;;;8.40;5.80;;;9.90;98.10;;;;;;4960528;28;20054;-71
2022/11/13 03:27:44;;;;;;;11.13;6.25;;;9.90;98.30;;;;;;4960815;28;20140;-71
2022/11/13 03:30:28;;;;;;;10.07;5.90;;;10.00;98.00;;;;;;4959888;28;20093;-71
2022/11/13 03:33:12;;;;;;;9.35;6.18;;;10.00;98.00;;;;;;4963515;28;20073;-71
2022/11/13 03:35:56;;;;;;;8.68;5.22;;;10.00;98.00;;;;;;4964324;28;20543;-71
2022/11/13 03:38:40;;;;;;;9.48;5.20;;;10.00;97.90;;;;;;4964674;28;20801;-71
2022/11/13 03:41:25;;;;;;;9.60;5.70;;;10.10;97.90;;;;;;4967004;28;20065;-71
2022/11/13 03:44:09;;;;;;;10.52;5.53;;;10.20;98.00;;;;;;4965204;28;20089;-70
2022/11/13 03:46:53;;;;;;;12.88;6.05;;;10.20;98.00;;;;;;4963877;28;20057;-70
2022/11/13 03:49:37;;;;;;;9.88;5.60;;;10.20;98.00;;;;;;4961749;28;20061;-72
2022/11/13 03:52:21;;;;;;;6.53;5.45;;;10.30;97.90;;;;;;4962959;28;20050;-71
2022/11/13 03:55:06;;;;;;;7.72;5.00;;;10.30;97.70;;;;;;4963128;28;20642;-71
2022/11/13 03:57:50;;;;;;;8.60;5.50;;;10.40;97.60;;;;;;4962239;28;20165;-71
2022/11/13 04:00:36;;;;;;;8.45;5.22;;;10.40;97.50;;;;;;4963415;28;20041;-71
2022/11/13 04:03:21;;;;;;;9.77;5.07;;;10.40;97.50;;;;;;4963936;28;20116;-72
2022/11/13 04:06:05;;;;;;;9.07;5.70;;;10.50;97.50;;;;;;4964884;28;20165;-71
2022/11/13 04:08:49;;;;;;;13.48;5.93;;;10.50;97.60;;;;;;4964113;28;20057;-71
2022/11/13 04:11:34;;;;;;;8.65;5.22;;;10.50;97.60;;;;;;4962815;28;20120;-70
2022/11/13 04:14:18;;;;;;;6.57;4.75;;;10.50;97.60;;;;;;4965686;28;20470;-71
2022/11/13 04:17:02;;;;;;;6.68;4.43;;;10.60;97.60;;;;;;4964374;28;20596;-71
2022/11/13 04:19:47;;;;;;;6.15;4.40;;;10.60;97.50;;;;;;4966480;28;20050;-71
2022/11/13 04:22:34;;;;;;;7.55;4.65;;;10.60;97.50;;;;;;4964715;28;20906;-71
2022/11/13 04:25:18;;;;;;;6.85;4.22;;;10.60;97.50;;;;;;4963632;28;20191;-70
2022/11/13 04:28:03;;;;;;;6.88;4.70;;;10.60;97.50;;;;;;4964241;28;20355;-71
2022/11/13 04:30:48;;;;;;;8.60;5.10;;;10.60;97.40;;;;;;4963171;28;20042;-70
2022/11/13 04:33:32;;;;;;;9.77;5.00;;;10.60;97.40;;;;;;4964339;28;20070;-70
2022/11/13 04:36:16;;;;;;;7.10;4.95;;;10.60;97.40;;;;;;4965138;28;20058;-70
2022/11/13 04:39:01;;;;;;;6.40;4.82;;;10.60;97.30;;;;;;4964372;28;20513;-71
2022/11/13 04:44:48;;;;;;;10.57;4.97;;;10.70;97.20;;;;;;4962988;28;20050;-71
2022/11/13 04:47:33;;;;;;;7.13;5.25;;;10.70;97.30;;;;;;4961125;28;20045;-71
2022/11/13 04:50:17;;;;;;;9.10;5.63;;;10.70;97.50;;;;;;4961094;28;20097;-70
2022/11/13 04:53:02;;;;;;;11.32;7.00;;;10.70;97.20;;;;;;4961611;28;20149;-71
2022/11/13 04:55:46;;;;;;;9.07;5.45;;;10.70;97.30;;;;;;4968893;28;20828;-71
2022/11/13 04:58:30;;;;;;;8.48;5.47;;;10.70;97.20;;;;;;4962778;28;20042;-71
2022/11/13 05:01:15;;;;;;;8.05;5.32;;;10.70;97.20;;;;;;4960894;28;20166;-71
2022/11/13 05:03:59;;;;;;;8.52;5.70;;;10.70;97.20;;;;;;4963199;28;20046;-71
2022/11/13 05:06:43;;;;;;;8.27;5.18;;;10.70;97.20;;;;;;4964947;28;20057;-71
2022/11/13 05:09:28;;;;;;;9.32;5.80;;;10.70;97.20;;;;;;4961756;28;20170;-71
2022/11/13 05:12:12;;;;;;;10.20;6.40;;;10.70;97.30;;;;;;4960343;28;20088;-70
2022/11/13 05:14:56;;;;;;;11.38;6.47;;;10.70;97.30;;;;;;4962648;28;20054;-71
2022/11/13 05:17:40;;;;;;;11.05;7.07;;;10.70;97.20;;;;;;4960624;28;20164;-71
2022/11/13 05:20:24;;;;;;;19.35;9.88;;;10.70;97.20;;;;;;4961866;28;20093;-71
2022/11/13 05:23:08;;;;;;;16.65;11.05;;;10.70;97.20;;;;;;4962063;28;20084;-71
2022/11/13 05:25:59;;;;;;;34.25;17.67;;;10.70;97.20;;;;;;4962398;28;20105;-71
2022/11/13 05:28:43;;;;;;;41.17;19.85;;;10.70;97.20;;;;;;4961373;28;20533;-71
2022/11/13 05:31:27;;;;;;;36.97;18.73;;;10.70;97.20;;;;;;4962515;28;20050;-71
2022/11/13 05:34:12;;;;;;;31.98;15.32;;;10.70;97.00;;;;;;4960620;28;20506;-71
2022/11/13 05:36:56;;;;;;;35.38;17.02;;;10.70;97.10;;;;;;4961726;28;20045;-71
2022/11/13 05:39:41;;;;;;;29.92;15.80;;;10.80;97.10;;;;;;4961299;28;20925;-71
2022/11/13 05:42:25;;;;;;;21.85;13.07;;;10.80;97.00;;;;;;4964061;28;20053;-71
2022/11/13 05:45:09;;;;;;;20.35;11.63;;;10.80;97.00;;;;;;4963744;28;20049;-71
2022/11/13 05:47:54;;;;;;;15.98;10.18;;;10.70;96.80;;;;;;4961944;28;20105;-71
2022/11/13 05:50:38;;;;;;;14.05;9.02;;;10.70;96.90;;;;;;4964445;28;20054;-71
2022/11/13 05:53:22;;;;;;;14.85;9.57;;;10.60;97.10;;;;;;4963705;28;20124;-71
2022/11/13 05:56:20;;;;;;;12.27;8.45;;;10.70;97.10;;;;;;4960332;28;20065;-71
2022/11/13 05:59:04;;;;;;;16.60;8.82;;;10.70;97.00;;;;;;4960166;28;20053;-71
2022/11/13 06:01:48;;;;;;;13.63;8.45;;;10.70;96.90;;;;;;4967391;28;20075;-71
2022/11/13 06:04:32;;;;;;;15.15;8.60;;;10.70;96.90;;;;;;4960695;28;20117;-71
2022/11/13 06:07:17;;;;;;;14.25;9.07;;;10.80;96.80;;;;;;4961080;28;20897;-71
2022/11/13 06:10:01;;;;;;;13.75;8.25;;;10.80;96.80;;;;;;4960888;28;20077;-72
2022/11/13 06:12:46;;;;;;;12.98;7.40;;;10.80;96.60;;;;;;4959346;28;20109;-71
2022/11/13 06:15:30;;;;;;;14.40;7.32;;;10.90;96.60;;;;;;4960099;28;20102;-71
2022/11/13 06:18:19;;;;;;;13.57;8.82;;;10.90;96.60;;;;;;4957283;28;20478;-71
2022/11/13 06:21:06;;;;;;;10.65;7.15;;;10.90;96.50;;;;;;4961085;28;20179;-71
2022/11/13 06:23:51;;;;;;;12.93;8.02;;;10.90;96.50;;;;;;4967004;28;20073;-71
2022/11/13 06:26:36;;;;;;;14.00;7.70;;;10.90;96.50;;;;;;4958801;28;20050;-71
2022/11/13 06:29:20;;;;;;;12.38;8.38;;;10.90;96.60;;;;;;4960860;28;20090;-71
2022/11/13 06:32:04;;;;;;;13.70;7.45;;;10.90;96.60;;;;;;4957775;28;20077;-71
2022/11/13 06:34:49;;;;;;;11.95;8.02;;;10.90;96.50;;;;;;4956225;28;20053;-71
2022/11/13 06:37:33;;;;;;;11.15;7.88;;;10.90;96.50;;;;;;4958222;28;20049;-71
2022/11/13 06:40:17;;;;;;;11.98;7.32;;;10.90;96.50;;;;;;4958186;28;20487;-71
2022/11/13 06:43:01;;;;;;;12.50;8.00;;;11.00;96.40;;;;;;4957917;28;20042;-71
2022/11/13 06:45:45;;;;;;;11.55;7.78;;;11.00;96.40;;;;;;4960839;28;20140;-71
2022/11/13 06:48:30;;;;;;;14.05;7.88;;;11.00;96.40;;;;;;4959599;28;20045;-71
2022/11/13 06:51:26;;;;;;;11.25;7.45;;;11.10;96.20;;;;;;4959321;28;20121;-71
2022/11/13 06:54:11;;;;;;;11.70;6.85;;;11.00;96.20;;;;;;4960572;28;20154;-71
2022/11/13 06:56:55;;;;;;;9.50;6.68;;;11.10;96.20;;;;;;4955898;28;20501;-71
2022/11/13 06:59:40;;;;;;;12.30;7.28;;;11.10;96.20;;;;;;4959846;28;20046;-71
2022/11/13 07:02:24;;;;;;;10.48;6.53;;;11.10;96.30;;;;;;4960136;28;20041;-70
2022/11/13 07:05:09;;;;;;;11.75;7.20;;;11.10;96.30;;;;;;4960537;28;20708;-71
2022/11/13 07:07:53;;;;;;;14.60;8.52;;;11.10;96.30;;;;;;4960308;28;20061;-70
2022/11/13 07:10:37;;;;;;;14.38;7.85;;;11.10;96.20;;;;;;4959969;28;20242;-71
2022/11/13 07:13:23;;;;;;;15.45;8.02;;;11.10;96.00;;;;;;4962242;28;20530;-71
2022/11/13 07:16:08;;;;;;;12.05;7.53;;;11.20;96.10;;;;;;4955932;28;20960;-71
2022/11/13 07:18:54;;;;;;;13.05;7.72;;;11.20;96.10;;;;;;4961205;28;20108;-71
2022/11/13 07:21:38;;;;;;;11.27;7.95;;;11.20;96.00;;;;;;4960849;28;20073;-71
2022/11/13 07:24:23;;;;;;;13.63;8.63;;;11.20;96.10;;;;;;4959960;28;20143;-71
2022/11/13 07:27:08;;;;;;;14.68;8.18;;;11.20;96.10;;;;;;4960445;28;20819;-71
2022/11/13 07:29:52;;;;;;;11.95;7.40;;;11.10;95.90;;;;;;4961326;28;20146;-71
2022/11/13 07:32:36;;;;;;;13.50;7.70;;;11.10;96.10;;;;;;4959499;28;20109;-71
2022/11/13 07:35:20;;;;;;;12.75;8.30;;;11.10;96.00;;;;;;4960792;28;20049;-71
2022/11/13 07:38:05;;;;;;;12.48;7.55;;;11.20;95.90;;;;;;4961382;28;20111;-71
2022/11/13 07:40:50;;;;;;;12.45;7.88;;;11.20;95.90;;;;;;4961196;28;20073;-71
2022/11/13 07:43:34;;;;;;;14.95;8.65;;;11.30;95.90;;;;;;4959718;28;20041;-71
2022/11/13 07:46:19;;;;;;;16.40;9.18;;;11.30;95.70;;;;;;4959429;28;20053;-71
2022/11/13 07:49:03;;;;;;;16.38;9.13;;;11.30;95.80;;;;;;4954957;28;20509;-71
2022/11/13 07:51:48;;;;;;;17.98;9.90;;;11.20;95.90;;;;;;4959912;28;20054;-71
2022/11/13 07:54:32;;;;;;;15.55;9.63;;;11.20;96.10;;;;;;4958686;28;20102;-71
2022/11/13 07:57:16;;;;;;;17.75;9.65;;;11.20;96.00;;;;;;4961424;28;20109;-71
2022/11/13 08:00:01;;;;;;;14.15;8.88;;;11.20;95.90;;;;;;4957978;28;20807;-71
2022/11/13 08:02:46;;;;;;;16.05;9.30;;;11.20;96.20;;;;;;4959975;28;20081;-71
2022/11/13 08:05:31;;;;;;;14.43;9.77;;;11.20;96.10;;;;;;4962426;28;20126;-71
2022/11/13 08:08:15;;;;;;;13.80;9.50;;;11.20;96.00;;;;;;4960565;28;20050;-71
2022/11/13 08:11:05;;;;;;;17.17;10.38;;;11.20;96.00;;;;;;4962953;28;20121;-72
2022/11/13 08:13:50;;;;;;;14.10;9.07;;;11.20;96.10;;;;;;4960073;28;20049;-72
2022/11/13 08:16:35;;;;;;;14.70;9.43;;;11.10;96.20;;;;;;4957646;28;20045;-71
2022/11/13 08:19:19;;;;;;;15.02;9.85;;;11.20;96.30;;;;;;4964730;28;20045;-73
2022/11/13 08:22:03;;;;;;;15.48;9.90;;;11.20;96.20;;;;;;4949718;28;20593;-67
2022/11/13 08:24:48;;;;;;;16.58;10.43;;;11.40;96.10;;;;;;4961578;28;20073;-68
2022/11/13 08:27:32;;;;;;;19.60;11.40;;;11.40;95.80;;;;;;4964898;28;20124;-68
2022/11/13 08:30:18;;;;;;;16.20;9.73;;;11.30;96.00;;;;;;4966992;28;20106;-68
2022/11/13 08:33:03;;;;;;;19.13;10.65;;;11.20;96.20;;;;;;4959023;28;20189;-76
2022/11/13 08:35:54;;;;;;;18.80;10.65;;;11.20;96.10;;;;;;4960226;28;20117;-67
2022/11/13 08:38:38;;;;;;;20.40;12.02;;;11.20;96.20;;;;;;4962232;28;20105;-66
2022/11/13 08:41:22;;;;;;;18.85;11.38;;;11.20;96.20;;;;;;4960375;28;20744;-66
2022/11/13 08:44:07;;;;;;;19.38;11.23;;;11.30;96.10;;;;;;4959523;28;20573;-72
2022/11/13 08:46:51;;;;;;;23.20;13.45;;;11.40;96.10;;;;;;4958182;28;20054;-67
2022/11/13 08:49:36;;;;;;;19.80;12.52;;;11.40;95.70;;;;;;4958592;28;20470;-67
2022/11/13 08:52:21;;;;;;;19.13;12.35;;;11.40;95.80;;;;;;4957358;28;20089;-67
2022/11/13 08:55:05;;;;;;;26.00;13.20;;;11.50;95.60;;;;;;4961923;28;20054;-71
2022/11/13 08:57:50;;;;;;;24.17;14.48;;;11.60;95.60;;;;;;4960300;28;20129;-67
2022/11/13 09:00:35;;;;;;;26.35;15.40;;;11.60;95.40;;;;;;4962084;28;20103;-75
2022/11/13 09:03:19;;;;;;;24.30;13.95;;;11.70;95.20;;;;;;4955271;28;20141;-67
2022/11/13 09:06:05;;;;;;;26.80;15.32;;;11.70;95.40;;;;;;4960001;28;20525;-67
2022/11/13 09:08:49;;;;;;;32.28;18.23;;;11.70;95.20;;;;;;4964957;28;20089;-67
2022/11/13 09:11:34;;;;;;;35.40;20.60;;;11.70;95.10;;;;;;4961984;28;20160;-67
2022/11/13 09:14:19;;;;;;;34.10;20.92;;;11.80;95.00;;;;;;4960294;28;20725;-66
2022/11/13 09:17:04;;;;;;;26.55;17.27;;;11.80;95.10;;;;;;4964130;28;20053;-65
2022/11/13 09:19:48;;;;;;;23.20;15.63;;;11.90;95.00;;;;;;4960946;28;20592;-65
2022/11/13 09:22:33;;;;;;;27.65;16.95;;;11.90;94.80;;;;;;4963106;28;20789;-67
2022/11/13 09:25:18;;;;;;;30.80;18.33;;;11.90;95.00;;;;;;4964466;28;20077;-66
2022/11/13 09:28:03;;;;;;;28.80;16.63;;;12.00;94.90;;;;;;4961415;28;20113;-65
2022/11/13 09:30:47;;;;;;;25.73;15.98;;;12.00;94.40;;;;;;4960250;28;20070;-67
2022/11/13 09:33:32;;;;;;;28.20;16.58;;;12.00;94.20;;;;;;4962126;28;20046;-72
2022/11/13 09:36:16;;;;;;;24.65;14.98;;;12.00;94.20;;;;;;4962105;28;20488;-67
2022/11/13 09:39:01;;;;;;;23.98;15.68;;;12.00;94.10;;;;;;4962907;28;20140;-69
2022/11/13 09:41:55;;;;;;;26.27;16.40;;;12.10;94.20;;;;;;4963380;28;20045;-66
2022/11/13 09:45:13;;;;;;;25.80;15.57;;;12.00;93.80;;;;;;4957811;28;20089;-67
2022/11/13 09:48:11;;;;;;;23.45;15.77;;;12.00;93.90;;;;;;4961279;28;20042;-66
2022/11/13 09:50:56;;;;;;;25.05;15.73;;;12.00;93.90;;;;;;4963019;28;20054;-66
2022/11/13 09:53:41;;;;;;;22.75;14.75;;;11.90;93.60;;;;;;4961557;28;20090;-66
2022/11/13 09:56:43;;;;;;;25.35;16.27;;;11.80;93.70;;;;;;4961431;28;20089;-66
2022/11/13 09:59:34;;;;;;;22.95;15.48;;;11.90;93.80;;;;;;4961049;28;20045;-65
2022/11/13 10:02:28;;;;;;;23.92;15.57;;;11.90;93.70;;;;;;4963217;28;20221;-64
2022/11/13 10:05:36;;;;;;;24.33;15.45;;;11.90;93.70;;;;;;4964427;28;20525;-66
2022/11/13 10:08:48;;;;;;;22.23;14.82;;;12.00;93.50;;;;;;4961986;28;20065;-64
2022/11/13 10:11:44;;;;;;;22.58;14.68;;;12.00;93.40;;;;;;4958734;28;20052;-64
2022/11/13 10:14:33;;;;;;;23.30;14.93;;;12.10;93.40;;;;;;4959942;28;20091;-69
2022/11/13 10:17:39;;;;;;;20.95;13.73;;;12.10;93.20;;;;;;4958953;28;20309;-65
2022/11/13 10:20:33;;;;;;;22.60;15.35;;;12.10;93.40;;;;;;4960393;28;20101;-66
2022/11/13 10:23:21;;;;;;;24.10;14.88;;;12.20;93.40;;;;;;4960491;28;20092;-66
2022/11/13 10:26:20;;;;;;;25.55;14.45;;;12.30;93.10;;;;;;4959096;28;20046;-66
2022/11/13 10:29:14;;;;;;;21.73;14.93;;;12.20;93.00;;;;;;4957579;28;20050;-75
2022/11/13 10:31:59;;;;;;;22.90;14.15;;;12.40;92.90;;;;;;4961047;28;20093;-66
2022/11/13 10:34:55;;;;;;;22.40;14.20;;;12.40;92.60;;;;;;4961155;28;20137;-68
2022/11/13 10:38:03;;;;;;;20.38;13.02;;;12.50;92.50;;;;;;4961198;28;20046;-66
2022/11/13 10:40:47;;;;;;;20.50;12.35;;;12.60;92.30;;;;;;4959919;28;20113;-65
2022/11/13 10:43:32;;;;;;;19.30;13.32;;;12.60;91.90;;;;;;4960766;28;20117;-65
2022/11/13 10:46:23;;;;;;;20.35;13.48;;;12.70;91.90;;;;;;4960777;28;20164;-72
2022/11/13 10:49:16;;;;;;;22.67;14.52;;;12.80;91.80;;;;;;4959992;28;20123;-66
2022/11/13 10:52:01;;;;;;;20.95;12.90;;;12.80;91.70;;;;;;4961797;28;20073;-64
2022/11/13 10:54:46;;;;;;;19.42;14.20;;;12.80;91.30;;;;;;4961192;28;20145;-64
2022/11/13 10:57:33;;;;;;;19.63;12.60;;;12.80;91.40;;;;;;4958485;28;20077;-65
2022/11/13 11:00:30;;;;;;;18.45;12.07;;;12.80;90.80;;;;;;4962482;28;20549;-65
2022/11/13 11:03:21;;;;;;;15.98;11.85;;;12.80;90.80;;;;;;4962587;28;20045;-66
2022/11/13 11:06:05;;;;;;;15.88;11.38;;;12.70;90.50;;;;;;4957371;28;20046;-65
2022/11/13 11:08:50;;;;;;;16.35;11.77;;;12.70;90.70;;;;;;4961029;28;20058;-66
2022/11/13 11:14:56;;;;;;;18.75;11.80;;;12.80;90.70;;;;;;4962282;28;20127;-65
2022/11/13 11:17:47;;;;;;;15.40;11.32;;;12.80;90.10;;;;;;4957440;28;20049;-64
2022/11/13 11:20:47;;;;;;;16.70;11.75;;;12.80;89.30;;;;;;4961259;28;20049;-65
2022/11/13 11:23:34;;;;;;;15.10;10.98;;;12.80;90.10;;;;;;4960382;28;20086;-64
2022/11/13 11:27:00;;;;;;;16.80;11.00;;;12.80;90.00;;;;;;4955761;28;20113;-66
2022/11/13 11:29:54;;;;;;;19.63;11.20;;;13.00;89.60;;;;;;4899140;29;20100;-65
2022/11/13 11:32:53;;;;;;;16.55;10.90;;;12.90;88.70;;;;;;4900423;29;20111;-67
2022/11/13 11:35:44;;;;;;;16.33;10.45;;;12.90;89.70;;;;;;4958437;28;20061;-67
2022/11/13 11:38:51;;;;;;;17.02;10.65;;;13.00;89.00;;;;;;4959167;28;20181;-66
2022/11/13 11:41:42;;;;;;;13.95;10.32;;;13.00;88.00;;;;;;4959311;28;20039;-71
2022/11/13 11:44:51;;;;;;;16.45;11.38;;;13.00;87.80;;;;;;4957055;28;20045;-73
2022/11/13 11:47:36;;;;;;;15.65;10.55;;;12.90;89.10;;;;;;4959299;28;20045;-68
2022/11/13 11:51:13;;;;;;;18.35;12.05;;;12.90;88.20;;;;;;4957010;28;20072;-66
2022/11/13 11:54:03;;;;;;;16.80;10.90;;;12.90;87.70;;;;;;4903157;29;20047;-66
2022/11/13 11:56:52;;;;;;;16.40;10.38;;;12.90;87.30;;;;;;4905010;29;20895;-67
2022/11/13 11:59:50;;;;;;;19.35;11.20;;;13.00;88.00;;;;;;4956880;28;20037;-66
2022/11/13 12:02:50;;;;;;;18.90;11.30;;;13.10;86.60;;;;;;4963120;28;20041;-68
2022/11/13 12:05:46;;;;;;;16.65;10.90;;;13.10;85.80;;;;;;4963840;28;20049;-66
2022/11/13 12:08:31;;;;;;;18.05;11.05;;;13.20;86.70;;;;;;4961456;28;20100;-66
2022/11/13 12:11:43;;;;;;;14.23;10.20;;;13.20;86.60;;;;;;4961466;28;20050;-67
2022/11/13 12:14:54;;;;;;;15.38;10.68;;;13.30;86.30;;;;;;4963078;28;20149;-66
2022/11/13 12:17:48;;;;;;;16.02;10.23;;;13.30;85.80;;;;;;4962355;28;20121;-67
2022/11/13 12:20:47;;;;;;;15.05;10.65;;;13.20;85.10;;;;;;4966615;28;20773;-68
2022/11/13 12:23:52;;;;;;;15.50;9.80;;;13.10;85.40;;;;;;4961366;28;20110;-67
2022/11/13 12:26:48;;;;;;;16.13;10.50;;;13.00;86.40;;;;;;4961835;28;20049;-67
2022/11/13 12:29:58;;;;;;;14.60;9.57;;;12.90;85.80;;;;;;4964925;28;20097;-66
2022/11/13 12:33:04;;;;;;;13.40;9.75;;;12.90;86.80;;;;;;4961355;28;20041;-66
2022/11/13 12:35:51;;;;;;;17.38;11.00;;;12.80;86.70;;;;;;4960563;28;20061;-67
2022/11/13 12:39:06;;;;;;;15.05;9.57;;;12.90;87.10;;;;;;4958241;28;20046;-65
2022/11/13 12:42:12;;;;;;;14.90;8.55;;;13.00;86.80;;;;;;4958338;28;20090;-66
2022/11/13 12:45:12;;;;;;;19.50;9.98;;;12.90;86.80;;;;;;4961945;28;20073;-67
2022/11/13 12:48:27;;;;;;;16.92;10.15;;;12.90;86.40;;;;;;4961538;28;20647;-67
2022/11/13 12:51:14;;;;;;;12.23;8.15;;;13.00;87.10;;;;;;4952426;28;20110;-68
2022/11/13 12:53:58;;;;;;;12.07;8.80;;;13.00;86.70;;;;;;4952896;28;20048;-66
2022/11/13 12:56:43;;;;;;;15.63;9.23;;;13.10;86.90;;;;;;4959125;28;20170;-65
2022/11/13 12:59:33;;;;;;;13.55;9.02;;;13.10;85.80;;;;;;4964129;28;20042;-65
2022/11/13 13:02:34;;;;;;;14.95;9.77;;;13.00;86.00;;;;;;4959117;28;20049;-65
2022/11/13 13:05:56;;;;;;;15.95;8.73;;;13.10;85.70;;;;;;4963649;28;20054;-65
2022/11/13 13:08:49;;;;;;;13.30;8.45;;;13.00;86.40;;;;;;4960040;28;20054;-69
2022/11/13 13:11:41;;;;;;;15.82;9.18;;;13.10;86.60;;;;;;4963175;28;20049;-65
2022/11/13 13:14:55;;;;;;;12.93;8.73;;;13.10;86.10;;;;;;4966151;28;20613;-66
2022/11/13 13:17:40;;;;;;;12.45;8.13;;;12.90;86.20;;;;;;4959314;28;20058;-65
2022/11/13 13:20:35;;;;;;;13.68;8.80;;;13.00;86.40;;;;;;4960825;28;20052;-66
2022/11/13 13:23:30;;;;;;;17.38;9.77;;;13.10;85.80;;;;;;4960893;28;20926;-66
2022/11/13 13:26:14;;;;;;;14.38;8.88;;;13.10;86.30;;;;;;4954752;28;20085;-65
2022/11/13 13:29:16;;;;;;;12.18;8.68;;;13.10;86.20;;;;;;4956914;28;20050;-68
2022/11/13 13:32:17;;;;;;;12.02;8.38;;;13.20;85.90;;;;;;4958114;28;20046;-67
2022/11/13 13:35:18;;;;;;;14.30;8.05;;;13.10;86.20;;;;;;4960723;28;20558;-67
2022/11/13 13:38:05;;;;;;;16.23;9.13;;;13.10;86.20;;;;;;4963156;28;20065;-71
2022/11/13 13:41:16;;;;;;;14.85;8.05;;;13.10;85.80;;;;;;4964119;28;20081;-66
2022/11/13 13:44:12;;;;;;;13.30;8.50;;;13.10;86.60;;;;;;4962785;28;20045;-68
2022/11/13 13:46:57;;;;;;;11.52;7.45;;;13.00;86.10;;;;;;4959716;28;20245;-68
2022/11/13 13:49:42;;;;;;;13.65;8.00;;;13.00;86.20;;;;;;4962386;28;20077;-68
2022/11/13 13:52:30;;;;;;;11.13;7.32;;;13.00;85.80;;;;;;4965469;28;20041;-67
2022/11/13 13:55:27;;;;;;;12.68;7.85;;;13.00;85.50;;;;;;4962648;28;20090;-67
2022/11/13 13:58:15;;;;;;;13.13;7.83;;;12.90;85.90;;;;;;4961729;28;20894;-68
2022/11/13 14:01:05;;;;;;;12.40;7.55;;;13.00;86.40;;;;;;4960818;28;20049;-68
2022/11/13 14:04:11;;;;;;;11.00;7.07;;;13.00;85.80;;;;;;4961312;28;20134;-69
2022/11/13 14:07:00;;;;;;;12.45;7.63;;;12.90;86.30;;;;;;4962263;28;20054;-66
2022/11/13 14:09:44;;;;;;;12.57;7.80;;;12.90;86.80;;;;;;4959745;28;20061;-65
2022/11/13 14:12:29;;;;;;;15.05;8.15;;;13.00;86.60;;;;;;4962285;28;20376;-65
2022/11/13 14:15:22;;;;;;;15.38;9.23;;;13.00;86.50;;;;;;4963040;28;20740;-65
2022/11/13 14:18:07;;;;;;;12.52;7.93;;;12.80;87.20;;;;;;4962294;28;20104;-65
2022/11/13 14:21:00;;;;;;;19.10;9.63;;;12.90;86.60;;;;;;4961208;28;20061;-67
2022/11/13 14:23:49;;;;;;;16.13;8.57;;;12.80;86.30;;;;;;4962690;28;20077;-69
2022/11/13 14:26:33;;;;;;;15.20;9.18;;;12.80;87.10;;;;;;4963824;28;20081;-67
2022/11/13 14:29:25;;;;;;;14.57;9.52;;;12.70;87.20;;;;;;4960650;28;20096;-68
2022/11/13 14:32:21;;;;;;;10.65;7.35;;;12.70;87.30;;;;;;4960473;28;20085;-68